Time;durP1;ratioP1;P1;durP2;ratioP2;P2;SDS_P1;SDS_P2;PMS_P1;PMS_P2;Temp;Humidity;BMP_temperature;BMP_pressure;BME280_temperature;BME280_humidity;BME280_pressure;Samples;Min_cycle;Max_cycle;Signal;HPM_P1;HPM_P2
2021/09/02 00:01:41;;;;;;;8.98;5.10;;;;;;;;;;5061393;28;20098;-73
2021/09/02 00:04:25;;;;;;;6.13;4.18;;;;;;;;;;5051047;28;20524;-81
2021/09/02 00:07:10;;;;;;;6.90;4.63;;;;;;;;;;5033243;28;20059;-75
2021/09/02 00:09:54;;;;;;;7.25;4.40;;;;;;;;;;5049830;28;20027;-74
2021/09/02 00:12:39;;;;;;;8.68;4.93;;;;;;;;;;5049243;28;20055;-80
2021/09/02 00:15:23;;;;;;;6.60;4.40;;;;;;;;;;5055261;28;20038;-80
2021/09/02 00:18:08;;;;;;;8.10;4.72;;;;;;;;;;5048202;28;20134;-80
2021/09/02 00:20:53;;;;;;;7.88;4.57;;;;;;;;;;5064127;28;20394;-80
2021/09/02 00:23:37;;;;;;;6.57;4.38;;;;;;;;;;5038238;28;20047;-75
2021/09/02 00:26:22;;;;;;;7.68;4.85;;;;;;;;;;5036714;28;20449;-80
2021/09/02 00:29:07;;;;;;;6.57;4.85;;;;;;;;;;5026761;28;20533;-79
2021/09/02 00:31:54;;;;;;;7.38;4.57;;;;;;;;;;5057109;28;20036;-79
2021/09/02 00:34:39;;;;;;;6.22;4.03;;;;;;;;;;5052496;28;20075;-79
2021/09/02 00:37:24;;;;;;;8.98;4.70;;;;;;;;;;5056505;28;20103;-79
2021/09/02 00:40:12;;;;;;;7.43;4.65;;;;;;;;;;5035057;28;20083;-79
2021/09/02 00:42:57;;;;;;;7.35;4.43;;;;;;;;;;5049926;28;20044;-73
2021/09/02 00:45:42;;;;;;;8.68;4.75;;;;;;;;;;5036700;28;20044;-81
2021/09/02 00:48:26;;;;;;;7.70;4.72;;;;;;;;;;5051460;28;20492;-79
2021/09/02 00:51:11;;;;;;;6.78;4.97;;;;;;;;;;5047308;28;20048;-79
2021/09/02 00:53:56;;;;;;;8.25;5.10;;;;;;;;;;5049150;28;20798;-80
2021/09/02 00:56:44;;;;;;;7.20;4.57;;;;;;;;;;5028070;28;20205;-81
2021/09/02 00:59:32;;;;;;;7.07;5.15;;;;;;;;;;5034981;28;20171;-80
2021/09/02 01:02:20;;;;;;;7.38;4.35;;;;;;;;;;5045144;28;20071;-79
2021/09/02 01:05:05;;;;;;;7.10;4.85;;;;;;;;;;5052407;28;20040;-72
2021/09/02 01:07:50;;;;;;;6.20;4.43;;;;;;;;;;5048457;28;20039;-79
2021/09/02 01:10:34;;;;;;;6.70;5.00;;;;;;;;;;5058158;28;20136;-79
2021/09/02 01:13:22;;;;;;;8.75;4.78;;;;;;;;;;5059115;28;20461;-79
2021/09/02 01:16:07;;;;;;;6.95;4.38;;;;;;;;;;5052302;28;20091;-79
2021/09/02 01:18:51;;;;;;;6.63;4.82;;;;;;;;;;5043132;28;20486;-79
2021/09/02 01:21:36;;;;;;;7.28;4.75;;;;;;;;;;5048581;28;20041;-79
2021/09/02 01:24:20;;;;;;;6.43;4.63;;;;;;;;;;5047321;28;20035;-79
2021/09/02 01:27:05;;;;;;;7.22;4.53;;;;;;;;;;5046594;28;20513;-81
2021/09/02 01:29:50;;;;;;;7.80;5.07;;;;;;;;;;5049530;28;20464;-79
2021/09/02 01:32:36;;;;;;;6.70;4.45;;;;;;;;;;5048052;28;20081;-78
2021/09/02 01:35:21;;;;;;;7.75;5.20;;;;;;;;;;5046865;28;20048;-75
2021/09/02 01:38:07;;;;;;;7.13;4.78;;;;;;;;;;5044406;28;20091;-80
2021/09/02 01:40:51;;;;;;;8.23;4.93;;;;;;;;;;5027294;28;20508;-79
2021/09/02 01:43:36;;;;;;;8.48;5.20;;;;;;;;;;5060748;28;20492;-80
2021/09/02 01:46:20;;;;;;;6.68;4.55;;;;;;;;;;5049628;28;20048;-80
2021/09/02 01:49:05;;;;;;;7.82;5.13;;;;;;;;;;5049383;28;20036;-80
2021/09/02 01:51:50;;;;;;;6.40;4.75;;;;;;;;;;5021742;28;20091;-80
2021/09/02 01:54:34;;;;;;;7.28;4.93;;;;;;;;;;5034685;28;20040;-81
2021/09/02 01:57:19;;;;;;;7.38;4.88;;;;;;;;;;5057998;28;20047;-80
2021/09/02 02:00:04;;;;;;;7.15;4.95;;;;;;;;;;5036786;28;20151;-79
2021/09/02 02:02:49;;;;;;;7.55;5.00;;;;;;;;;;5054932;28;20043;-80
2021/09/02 02:05:34;;;;;;;7.68;5.35;;;;;;;;;;5035317;28;20044;-79
2021/09/02 02:08:19;;;;;;;8.27;4.90;;;;;;;;;;5048227;28;20497;-79
2021/09/02 02:11:03;;;;;;;7.03;4.88;;;;;;;;;;5048838;28;20044;-80
2021/09/02 02:13:48;;;;;;;6.00;4.35;;;;;;;;;;5048246;28;20040;-79
2021/09/02 02:16:32;;;;;;;6.20;4.70;;;;;;;;;;5049179;28;20048;-79
2021/09/02 02:19:17;;;;;;;6.95;4.60;;;;;;;;;;5033202;28;20040;-79
2021/09/02 02:22:01;;;;;;;8.52;4.90;;;;;;;;;;5048019;28;20540;-80
2021/09/02 02:24:46;;;;;;;8.73;5.18;;;;;;;;;;5033617;28;20091;-80
2021/09/02 02:27:30;;;;;;;7.07;4.57;;;;;;;;;;5044882;28;20524;-80
2021/09/02 02:30:15;;;;;;;6.32;4.70;;;;;;;;;;5039696;28;20517;-80
2021/09/02 02:33:00;;;;;;;8.43;4.78;;;;;;;;;;5049159;28;20044;-81
2021/09/02 02:35:44;;;;;;;6.28;4.45;;;;;;;;;;5048057;28;20051;-79
2021/09/02 02:38:30;;;;;;;5.90;4.57;;;;;;;;;;5048994;28;20044;-79
2021/09/02 02:41:14;;;;;;;8.10;5.00;;;;;;;;;;5033898;28;20044;-79
2021/09/02 02:43:59;;;;;;;6.55;4.90;;;;;;;;;;5032549;28;20547;-80
2021/09/02 02:46:43;;;;;;;7.00;5.28;;;;;;;;;;5019167;28;20043;-79
2021/09/02 02:49:28;;;;;;;7.32;4.75;;;;;;;;;;5047409;28;20116;-80
2021/09/02 02:52:12;;;;;;;6.10;4.55;;;;;;;;;;5046680;28;20565;-79
2021/09/02 02:54:57;;;;;;;6.75;4.75;;;;;;;;;;5047343;28;20118;-79
2021/09/02 02:57:41;;;;;;;8.48;5.47;;;;;;;;;;5047024;28;20044;-79
2021/09/02 03:00:26;;;;;;;7.53;5.07;;;;;;;;;;5035050;28;20040;-79
2021/09/02 03:03:10;;;;;;;6.95;4.75;;;;;;;;;;5053073;28;20040;-79
2021/09/02 03:05:55;;;;;;;7.10;4.80;;;;;;;;;;5045716;28;20083;-80
2021/09/02 03:08:40;;;;;;;7.47;4.95;;;;;;;;;;5047284;28;20048;-79
2021/09/02 03:11:25;;;;;;;6.57;4.65;;;;;;;;;;5046095;28;20055;-79
2021/09/02 03:14:09;;;;;;;8.20;4.68;;;;;;;;;;5066112;28;20085;-79
2021/09/02 03:16:53;;;;;;;8.30;4.88;;;;;;;;;;5047409;28;20118;-79
2021/09/02 03:19:38;;;;;;;7.45;5.18;;;;;;;;;;5051003;28;20063;-79
2021/09/02 03:22:23;;;;;;;8.20;5.35;;;;;;;;;;5037169;28;20552;-79
2021/09/02 03:25:08;;;;;;;6.28;4.90;;;;;;;;;;5033431;28;20377;-79
2021/09/02 03:27:52;;;;;;;7.47;5.10;;;;;;;;;;5044685;28;20044;-79
2021/09/02 03:30:37;;;;;;;6.88;4.88;;;;;;;;;;5042728;28;20040;-79
2021/09/02 03:33:22;;;;;;;6.70;4.80;;;;;;;;;;5048087;28;20501;-79
2021/09/02 03:36:06;;;;;;;9.07;5.18;;;;;;;;;;5050452;28;20087;-79
2021/09/02 03:38:51;;;;;;;6.93;4.70;;;;;;;;;;5039814;28;20040;-79
2021/09/02 03:41:36;;;;;;;7.65;5.35;;;;;;;;;;5037642;28;20158;-79
2021/09/02 03:44:20;;;;;;;7.03;5.03;;;;;;;;;;5038396;28;20051;-79
2021/09/02 03:47:05;;;;;;;7.82;4.95;;;;;;;;;;5048494;28;20061;-79
2021/09/02 03:49:50;;;;;;;7.35;4.95;;;;;;;;;;5042444;28;20048;-78
2021/09/02 03:52:34;;;;;;;7.65;4.90;;;;;;;;;;5046668;28;20102;-78
2021/09/02 03:55:18;;;;;;;7.70;4.75;;;;;;;;;;5051992;28;20048;-79
2021/09/02 03:58:03;;;;;;;5.72;4.78;;;;;;;;;;5055230;28;20048;-79
2021/09/02 04:00:47;;;;;;;7.55;5.30;;;;;;;;;;5048915;28;20044;-79
2021/09/02 04:03:32;;;;;;;7.70;5.28;;;;;;;;;;5049491;28;20517;-79
2021/09/02 04:06:16;;;;;;;8.23;5.03;;;;;;;;;;5046855;28;20043;-79
2021/09/02 04:09:01;;;;;;;8.82;5.45;;;;;;;;;;5048780;28;20055;-79
2021/09/02 04:11:45;;;;;;;8.35;5.15;;;;;;;;;;5048721;28;20035;-79
2021/09/02 04:14:30;;;;;;;7.55;4.90;;;;;;;;;;5062998;28;20471;-78
2021/09/02 04:17:14;;;;;;;8.38;5.15;;;;;;;;;;5060935;28;20060;-80
2021/09/02 04:19:59;;;;;;;8.50;5.45;;;;;;;;;;5037807;28;20036;-79
2021/09/02 04:22:44;;;;;;;8.90;5.00;;;;;;;;;;5042633;28;20481;-79
2021/09/02 04:25:28;;;;;;;7.00;5.20;;;;;;;;;;5042654;28;20413;-79
2021/09/02 04:28:13;;;;;;;9.10;5.13;;;;;;;;;;5058311;28;20515;-79
2021/09/02 04:30:58;;;;;;;6.38;4.57;;;;;;;;;;5066727;28;20074;-79
2021/09/02 04:33:42;;;;;;;9.70;5.13;;;;;;;;;;5053983;28;20552;-79
2021/09/02 04:36:27;;;;;;;8.40;5.10;;;;;;;;;;5052448;28;20453;-80
2021/09/02 04:39:11;;;;;;;6.80;4.85;;;;;;;;;;5050997;28;20040;-79
2021/09/02 04:41:55;;;;;;;9.13;5.50;;;;;;;;;;5045628;28;20151;-79
2021/09/02 04:44:40;;;;;;;8.02;5.55;;;;;;;;;;5032782;28;20059;-78
2021/09/02 04:47:24;;;;;;;7.80;5.30;;;;;;;;;;5051966;28;20031;-80
2021/09/02 04:50:10;;;;;;;8.13;5.70;;;;;;;;;;5065695;28;20072;-80
2021/09/02 04:52:56;;;;;;;6.75;5.13;;;;;;;;;;5036996;28;20028;-80
2021/09/02 04:55:41;;;;;;;8.27;4.63;;;;;;;;;;5050317;28;20039;-80
2021/09/02 04:58:25;;;;;;;8.48;5.07;;;;;;;;;;5054208;28;20517;-78
2021/09/02 05:01:10;;;;;;;9.50;5.30;;;;;;;;;;5046421;28;20036;-79
2021/09/02 05:03:54;;;;;;;6.47;4.50;;;;;;;;;;5033534;28;20110;-78
2021/09/02 05:06:40;;;;;;;10.00;5.53;;;;;;;;;;5047339;28;20052;-78
2021/09/02 05:09:25;;;;;;;6.78;4.72;;;;;;;;;;5047636;28;20047;-78
2021/09/02 05:12:09;;;;;;;8.35;4.82;;;;;;;;;;5049294;28;20039;-79
2021/09/02 05:14:54;;;;;;;7.90;5.07;;;;;;;;;;5033005;28;20040;-78
2021/09/02 05:17:38;;;;;;;7.28;5.25;;;;;;;;;;5046748;28;20099;-80
2021/09/02 05:20:22;;;;;;;7.68;4.63;;;;;;;;;;5032284;28;20695;-78
2021/09/02 05:23:07;;;;;;;6.80;5.22;;;;;;;;;;5055091;28;20048;-79
2021/09/02 05:25:52;;;;;;;8.07;5.00;;;;;;;;;;5051056;28;20043;-79
2021/09/02 05:28:37;;;;;;;8.98;5.65;;;;;;;;;;5052854;28;20505;-78
2021/09/02 05:31:22;;;;;;;9.63;5.53;;;;;;;;;;5049814;28;20048;-79
2021/09/02 05:34:07;;;;;;;8.27;5.07;;;;;;;;;;5044664;28;20143;-78
2021/09/02 05:36:51;;;;;;;6.70;4.80;;;;;;;;;;5059688;28;20068;-81
2021/09/02 05:39:36;;;;;;;8.00;5.32;;;;;;;;;;5065617;28;20112;-79
2021/09/02 05:42:20;;;;;;;7.97;5.03;;;;;;;;;;5055020;28;20043;-77
2021/09/02 05:45:05;;;;;;;6.40;4.97;;;;;;;;;;5046581;28;20769;-79
2021/09/02 05:47:50;;;;;;;8.05;4.78;;;;;;;;;;5053558;28;20039;-78
2021/09/02 05:50:34;;;;;;;8.80;4.78;;;;;;;;;;5052077;28;20031;-79
2021/09/02 05:53:19;;;;;;;6.22;4.35;;;;;;;;;;5042805;28;20087;-77
2021/09/02 05:56:07;;;;;;;7.68;5.10;;;;;;;;;;5048206;28;20051;-79
2021/09/02 05:58:52;;;;;;;6.45;4.60;;;;;;;;;;5037636;28;20413;-79
2021/09/02 06:01:36;;;;;;;7.20;4.65;;;;;;;;;;5026501;28;20036;-79
2021/09/02 06:04:21;;;;;;;7.28;5.05;;;;;;;;;;5062232;28;20035;-79
2021/09/02 06:07:05;;;;;;;7.80;5.25;;;;;;;;;;5036831;28;20090;-78
2021/09/02 06:09:49;;;;;;;6.45;4.30;;;;;;;;;;5018729;28;20039;-79
2021/09/02 06:12:34;;;;;;;9.38;5.47;;;;;;;;;;5056145;28;20374;-78
2021/09/02 06:15:18;;;;;;;5.97;4.38;;;;;;;;;;5046770;28;20052;-79
2021/09/02 06:18:03;;;;;;;7.85;4.53;;;;;;;;;;5045901;28;20040;-79
2021/09/02 06:20:47;;;;;;;10.02;4.70;;;;;;;;;;5049194;28;20067;-79
2021/09/02 06:23:32;;;;;;;7.65;4.70;;;;;;;;;;5038730;28;20074;-78
2021/09/02 06:26:16;;;;;;;6.40;4.28;;;;;;;;;;5046762;28;20032;-79
2021/09/02 06:29:01;;;;;;;5.47;4.57;;;;;;;;;;5045486;28;20094;-80
2021/09/02 06:31:45;;;;;;;6.70;4.50;;;;;;;;;;5047343;28;20059;-79
2021/09/02 06:34:30;;;;;;;5.63;4.00;;;;;;;;;;5026512;28;20051;-77
2021/09/02 06:37:14;;;;;;;6.25;4.70;;;;;;;;;;5043382;28;20052;-79
2021/09/02 06:39:59;;;;;;;6.22;4.90;;;;;;;;;;5049616;28;20043;-79
2021/09/02 06:42:43;;;;;;;6.72;4.78;;;;;;;;;;5043938;28;20107;-79
2021/09/02 06:45:28;;;;;;;7.03;4.68;;;;;;;;;;5040477;28;20549;-78
2021/09/02 06:48:12;;;;;;;7.25;4.45;;;;;;;;;;5041230;28;20067;-80
2021/09/02 06:50:57;;;;;;;7.97;4.40;;;;;;;;;;5057204;28;20057;-78
2021/09/02 06:53:41;;;;;;;6.43;4.45;;;;;;;;;;5046145;28;20040;-78
2021/09/02 06:56:26;;;;;;;7.32;4.85;;;;;;;;;;5031199;28;20059;-79
2021/09/02 06:59:10;;;;;;;7.75;4.75;;;;;;;;;;5040854;28;20039;-74
2021/09/02 07:01:55;;;;;;;6.10;4.60;;;;;;;;;;5040904;28;20168;-79
2021/09/02 07:04:39;;;;;;;8.07;4.43;;;;;;;;;;5046550;28;20047;-79
2021/09/02 07:07:24;;;;;;;9.18;5.03;;;;;;;;;;5051308;28;20117;-79
2021/09/02 07:10:09;;;;;;;8.30;4.85;;;;;;;;;;5046567;28;20095;-78
2021/09/02 07:12:54;;;;;;;6.40;4.38;;;;;;;;;;5055089;28;20040;-78
2021/09/02 07:15:38;;;;;;;6.38;4.60;;;;;;;;;;5043861;28;20493;-78
2021/09/02 07:18:22;;;;;;;6.72;4.78;;;;;;;;;;5044968;28;20032;-79
2021/09/02 07:21:07;;;;;;;5.63;4.50;;;;;;;;;;5044990;28;20071;-78
2021/09/02 07:23:51;;;;;;;7.18;4.75;;;;;;;;;;5045640;28;20043;-78
2021/09/02 07:26:37;;;;;;;6.57;4.60;;;;;;;;;;5025621;28;20522;-78
2021/09/02 07:29:22;;;;;;;7.40;4.60;;;;;;;;;;5034407;28;20044;-79
2021/09/02 07:32:06;;;;;;;6.47;4.40;;;;;;;;;;5052610;28;20039;-78
2021/09/02 07:34:51;;;;;;;6.78;4.68;;;;;;;;;;5044902;28;20040;-79
2021/09/02 07:37:36;;;;;;;6.20;4.43;;;;;;;;;;5039181;28;20534;-78
2021/09/02 07:40:20;;;;;;;6.60;4.57;;;;;;;;;;5048844;28;20101;-79
2021/09/02 07:43:04;;;;;;;7.30;4.63;;;;;;;;;;5035729;28;20039;-80
2021/09/02 07:45:49;;;;;;;6.57;4.97;;;;;;;;;;5049064;28;20110;-79
2021/09/02 07:48:34;;;;;;;7.10;5.35;;;;;;;;;;5054403;28;20036;-79
2021/09/02 07:51:18;;;;;;;6.55;4.53;;;;;;;;;;5038621;28;20044;-79
2021/09/02 07:54:03;;;;;;;4.85;4.00;;;;;;;;;;5051891;28;20497;-79
2021/09/02 07:56:47;;;;;;;7.97;4.45;;;;;;;;;;5027960;28;20076;-79
2021/09/02 07:59:32;;;;;;;6.20;4.30;;;;;;;;;;5053279;28;20039;-79
2021/09/02 08:02:17;;;;;;;7.22;4.65;;;;;;;;;;5047781;28;20144;-79
2021/09/02 08:05:01;;;;;;;6.20;4.47;;;;;;;;;;5048640;28;20040;-76
2021/09/02 08:07:50;;;;;;;5.32;4.05;;;;;;;;;;5048259;28;20056;-80
2021/09/02 08:10:34;;;;;;;6.72;4.40;;;;;;;;;;5050698;28;20040;-79
2021/09/02 08:13:19;;;;;;;7.32;4.57;;;;;;;;;;5055456;28;20052;-79
2021/09/02 08:16:03;;;;;;;7.10;4.25;;;;;;;;;;5051453;28;20095;-79
2021/09/02 08:18:48;;;;;;;5.68;4.35;;;;;;;;;;5051783;28;20039;-74
2021/09/02 08:21:33;;;;;;;7.95;4.80;;;;;;;;;;5054120;28;20106;-79
2021/09/02 08:24:18;;;;;;;5.70;4.63;;;;;;;;;;5047438;28;20043;-78
2021/09/02 08:27:02;;;;;;;7.65;4.35;;;;;;;;;;5047116;28;20086;-80
2021/09/02 08:29:47;;;;;;;7.93;4.68;;;;;;;;;;5059399;28;20449;-78
2021/09/02 08:32:32;;;;;;;5.80;4.57;;;;;;;;;;5046339;28;20044;-80
2021/09/02 08:35:30;;;;;;;7.70;5.00;;;;;;;;;;5033907;28;20071;-78
2021/09/02 08:38:14;;;;;;;6.18;4.72;;;;;;;;;;5042524;28;20043;-79
2021/09/02 08:40:59;;;;;;;6.32;4.72;;;;;;;;;;5043074;28;20048;-77
2021/09/02 08:43:44;;;;;;;6.85;4.63;;;;;;;;;;5051858;28;20039;-78
2021/09/02 08:46:29;;;;;;;8.13;4.43;;;;;;;;;;5054853;28;20516;-78
2021/09/02 08:49:14;;;;;;;6.13;4.22;;;;;;;;;;5049576;28;20076;-78
2021/09/02 08:51:58;;;;;;;5.68;4.50;;;;;;;;;;5039812;28;20067;-79
2021/09/02 08:54:43;;;;;;;5.63;4.32;;;;;;;;;;5045315;28;20870;-79
2021/09/02 08:57:27;;;;;;;5.82;4.65;;;;;;;;;;5045372;28;20044;-79
2021/09/02 09:00:12;;;;;;;6.80;4.68;;;;;;;;;;5040200;28;20035;-80
2021/09/02 09:03:01;;;;;;;6.03;4.32;;;;;;;;;;5040278;28;20087;-78
2021/09/02 09:05:52;;;;;;;6.53;4.43;;;;;;;;;;5048583;28;20035;-79
2021/09/02 09:08:37;;;;;;;6.30;4.53;;;;;;;;;;5046261;28;20543;-81
2021/09/02 09:11:22;;;;;;;6.22;4.40;;;;;;;;;;5047394;28;20036;-76
2021/09/02 09:14:07;;;;;;;7.55;4.82;;;;;;;;;;5047390;28;20044;-77
2021/09/02 09:16:52;;;;;;;7.35;4.90;;;;;;;;;;5046979;28;20113;-83
2021/09/02 09:19:36;;;;;;;8.23;4.68;;;;;;;;;;5030005;28;20036;-77
2021/09/02 09:22:22;;;;;;;8.57;5.22;;;;;;;;;;5049299;28;20167;-77
2021/09/02 09:25:08;;;;;;;8.95;4.90;;;;;;;;;;5033788;28;20075;-77
2021/09/02 09:27:55;;;;;;;7.93;5.40;;;;;;;;;;5047282;28;20556;-78
2021/09/02 09:30:40;;;;;;;7.07;5.40;;;;;;;;;;5046517;28;20123;-77
2021/09/02 09:33:24;;;;;;;7.20;4.85;;;;;;;;;;5046567;28;20610;-77
2021/09/02 09:36:09;;;;;;;8.48;5.07;;;;;;;;;;5032817;28;20170;-77
2021/09/02 09:38:58;;;;;;;8.88;5.18;;;;;;;;;;5027045;28;20051;-83
2021/09/02 09:41:46;;;;;;;9.18;5.40;;;;;;;;;;5034549;28;20083;-87
2021/09/02 09:44:31;;;;;;;7.20;5.18;;;;;;;;;;5040887;28;20124;-76
2021/09/02 09:47:17;;;;;;;7.47;5.38;;;;;;;;;;5019933;28;20111;-86
2021/09/02 09:50:08;;;;;;;9.30;5.93;;;;;;;;;;5040658;28;20098;-76
2021/09/02 09:52:53;;;;;;;10.53;6.47;;;;;;;;;;5030294;28;20567;-76
2021/09/02 09:55:37;;;;;;;13.52;5.85;;;;;;;;;;5027054;28;20084;-75
2021/09/02 09:58:22;;;;;;;10.65;6.40;;;;;;;;;;5027309;28;20040;-75
2021/09/02 10:01:07;;;;;;;8.85;5.90;;;;;;;;;;5044581;28;20524;-76
2021/09/02 10:03:52;;;;;;;9.73;6.03;;;;;;;;;;5048219;28;20040;-76
2021/09/02 10:06:36;;;;;;;11.60;6.55;;;;;;;;;;5032668;28;20086;-75
2021/09/02 10:09:21;;;;;;;9.30;6.28;;;;;;;;;;5032588;28;20406;-76
2021/09/02 10:12:06;;;;;;;7.47;5.57;;;;;;;;;;5026789;28;20199;-73
2021/09/02 10:14:50;;;;;;;8.98;5.55;;;;;;;;;;5027788;28;20094;-76
2021/09/02 10:17:35;;;;;;;8.15;5.85;;;;;;;;;;5026935;28;20055;-76
2021/09/02 10:20:20;;;;;;;8.00;5.55;;;;;;;;;;5030764;28;20729;-75
2021/09/02 10:23:05;;;;;;;9.20;5.68;;;;;;;;;;5046872;28;20074;-76
2021/09/02 10:25:50;;;;;;;8.13;5.78;;;;;;;;;;5047565;28;20896;-76
2021/09/02 10:28:35;;;;;;;7.50;5.20;;;;;;;;;;5046364;28;20569;-77
2021/09/02 10:31:23;;;;;;;7.93;5.50;;;;;;;;;;5046162;28;20039;-75
2021/09/02 10:34:18;;;;;;;9.20;5.88;;;;;;;;;;5032315;28;20043;-75
2021/09/02 10:37:03;;;;;;;7.30;5.25;;;;;;;;;;5045306;28;20051;-74
2021/09/02 10:39:48;;;;;;;8.88;5.68;;;;;;;;;;5044788;28;20032;-77
2021/09/02 10:42:49;;;;;;;7.93;5.30;;;;;;;;;;5046059;28;20664;-77
2021/09/02 10:45:35;;;;;;;7.78;5.32;;;;;;;;;;5047072;28;20071;-77
2021/09/02 10:48:20;;;;;;;8.75;5.35;;;;;;;;;;5047185;28;20048;-76
2021/09/02 10:51:04;;;;;;;7.63;5.05;;;;;;;;;;5045473;28;20044;-76
2021/09/02 10:53:49;;;;;;;7.95;5.70;;;;;;;;;;5032504;28;20362;-76
2021/09/02 10:56:51;;;;;;;9.13;5.90;;;;;;;;;;5031140;28;20463;-76
2021/09/02 10:59:52;;;;;;;9.57;5.50;;;;;;;;;;5045233;28;20075;-77
2021/09/02 11:02:39;;;;;;;9.93;5.30;;;;;;;;;;5032076;28;20118;-77
2021/09/02 11:05:24;;;;;;;9.13;5.18;;;;;;;;;;5045407;28;20044;-77
2021/09/02 11:08:09;;;;;;;8.85;5.70;;;;;;;;;;5045479;28;20098;-77
2021/09/02 11:11:08;;;;;;;8.70;6.07;;;;;;;;;;5031815;28;20043;-77
2021/09/02 11:13:53;;;;;;;8.05;5.57;;;;;;;;;;5031226;28;20775;-77
2021/09/02 11:16:41;;;;;;;7.88;5.10;;;;;;;;;;5031662;28;20055;-77
2021/09/02 11:19:30;;;;;;;8.23;5.07;;;;;;;;;;5045572;28;20572;-76
2021/09/02 11:22:15;;;;;;;9.60;5.88;;;;;;;;;;5045974;28;20099;-77
2021/09/02 11:25:00;;;;;;;7.88;5.22;;;;;;;;;;5044929;28;20048;-77
2021/09/02 11:27:44;;;;;;;8.63;5.40;;;;;;;;;;5045527;28;20120;-76
2021/09/02 11:30:29;;;;;;;7.28;5.45;;;;;;;;;;5025236;28;20040;-77
2021/09/02 11:33:15;;;;;;;9.35;5.18;;;;;;;;;;5026385;28;20068;-75
2021/09/02 11:36:00;;;;;;;7.53;5.28;;;;;;;;;;5045332;28;20082;-77
2021/09/02 11:38:46;;;;;;;7.65;5.45;;;;;;;;;;5043511;28;20505;-82
2021/09/02 11:41:30;;;;;;;7.88;5.32;;;;;;;;;;5044979;28;20418;-78
2021/09/02 11:44:18;;;;;;;8.00;6.00;;;;;;;;;;5045303;28;20071;-80
2021/09/02 11:47:06;;;;;;;8.30;5.45;;;;;;;;;;5044896;28;20600;-79
2021/09/02 11:49:58;;;;;;;9.65;5.90;;;;;;;;;;5045356;28;20044;-81
2021/09/02 11:52:43;;;;;;;9.48;5.55;;;;;;;;;;5023291;28;20047;-80
2021/09/02 11:55:29;;;;;;;9.73;5.60;;;;;;;;;;5027511;28;20056;-81
2021/09/02 11:58:15;;;;;;;7.75;4.95;;;;;;;;;;5045119;28;20087;-78
2021/09/02 12:01:00;;;;;;;6.45;4.95;;;;;;;;;;5044669;28;20040;-80
2021/09/02 12:03:49;;;;;;;7.95;5.50;;;;;;;;;;5045088;28;20109;-80
2021/09/02 12:06:34;;;;;;;8.75;5.20;;;;;;;;;;5045012;28;20155;-79
2021/09/02 12:09:19;;;;;;;8.80;5.50;;;;;;;;;;5045349;28;20497;-81
2021/09/02 12:12:04;;;;;;;8.00;5.18;;;;;;;;;;5044822;28;20146;-74
2021/09/02 12:14:49;;;;;;;7.88;5.32;;;;;;;;;;5044530;28;20040;-79
2021/09/02 12:17:38;;;;;;;8.00;5.18;;;;;;;;;;5027826;28;20556;-80
2021/09/02 12:20:24;;;;;;;9.00;5.78;;;;;;;;;;5044922;28;20075;-80
2021/09/02 12:23:19;;;;;;;9.57;5.75;;;;;;;;;;5044237;28;20083;-78
2021/09/02 12:26:03;;;;;;;9.02;5.93;;;;;;;;;;5041373;28;20048;-79
2021/09/02 12:28:49;;;;;;;8.63;6.13;;;;;;;;;;5045264;28;20033;-79
2021/09/02 12:31:33;;;;;;;7.07;5.05;;;;;;;;;;5045721;28;20536;-79
2021/09/02 12:34:24;;;;;;;7.93;5.65;;;;;;;;;;5044859;28;20179;-78
2021/09/02 12:37:10;;;;;;;8.85;5.82;;;;;;;;;;5044566;28;20052;-79
2021/09/02 12:39:59;;;;;;;14.02;5.97;;;;;;;;;;5045251;28;20406;-79
2021/09/02 12:42:44;;;;;;;7.95;5.78;;;;;;;;;;5044813;28;20540;-79
2021/09/02 12:45:29;;;;;;;9.32;5.15;;;;;;;;;;5044783;28;20048;-79
2021/09/02 12:48:18;;;;;;;8.13;5.50;;;;;;;;;;5030854;28;20079;-78
2021/09/02 12:51:03;;;;;;;9.35;5.28;;;;;;;;;;5045934;28;20036;-79
2021/09/02 12:53:57;;;;;;;10.77;5.80;;;;;;;;;;5034258;28;20589;-78
2021/09/02 12:56:41;;;;;;;6.60;5.18;;;;;;;;;;5048001;28;20106;-79
2021/09/02 12:59:26;;;;;;;7.55;5.45;;;;;;;;;;5048387;28;20288;-80
2021/09/02 13:02:11;;;;;;;8.27;5.32;;;;;;;;;;5048376;28;20175;-79
2021/09/02 13:04:55;;;;;;;7.18;5.40;;;;;;;;;;5049219;28;20043;-79
2021/09/02 13:07:47;;;;;;;8.30;5.70;;;;;;;;;;5034565;28;20044;-79
2021/09/02 13:10:33;;;;;;;7.38;5.28;;;;;;;;;;5048093;28;20151;-79
2021/09/02 13:13:18;;;;;;;7.60;5.40;;;;;;;;;;5047969;28;20046;-77
2021/09/02 13:16:02;;;;;;;9.98;5.43;;;;;;;;;;5047715;28;20098;-79
2021/09/02 13:18:47;;;;;;;8.77;5.80;;;;;;;;;;5033972;28;20044;-73
2021/09/02 13:21:32;;;;;;;9.77;5.10;;;;;;;;;;5048040;28;20680;-78
2021/09/02 13:24:17;;;;;;;9.63;5.43;;;;;;;;;;5047981;28;20043;-78
2021/09/02 13:27:01;;;;;;;7.65;5.20;;;;;;;;;;5033427;28;20075;-81
2021/09/02 13:29:47;;;;;;;8.23;5.28;;;;;;;;;;5046964;28;20068;-80
2021/09/02 13:32:31;;;;;;;7.38;4.88;;;;;;;;;;5047786;28;20040;-80
2021/09/02 13:35:16;;;;;;;7.43;4.80;;;;;;;;;;5048460;28;20055;-79
2021/09/02 13:38:00;;;;;;;6.68;5.10;;;;;;;;;;5048036;28;20048;-79
2021/09/02 13:40:45;;;;;;;7.57;5.28;;;;;;;;;;5046976;28;20044;-80
2021/09/02 13:43:30;;;;;;;8.70;5.32;;;;;;;;;;5047536;28;20071;-79
2021/09/02 13:46:15;;;;;;;6.15;4.50;;;;;;;;;;5018011;28;20039;-76
2021/09/02 13:49:00;;;;;;;7.07;5.00;;;;;;;;;;5046914;28;20048;-80
2021/09/02 13:51:44;;;;;;;7.57;5.05;;;;;;;;;;5048492;28;20044;-80
2021/09/02 13:54:29;;;;;;;7.85;5.00;;;;;;;;;;5047349;28;20114;-79
2021/09/02 13:57:13;;;;;;;7.82;4.65;;;;;;;;;;5027172;28;20083;-79
2021/09/02 13:59:58;;;;;;;7.68;5.35;;;;;;;;;;5046339;28;20079;-79
2021/09/02 14:02:42;;;;;;;8.30;5.00;;;;;;;;;;5046586;28;20516;-79
2021/09/02 14:05:27;;;;;;;8.80;5.00;;;;;;;;;;5031717;28;20039;-80
2021/09/02 14:08:12;;;;;;;6.70;4.72;;;;;;;;;;5046557;28;20048;-80
2021/09/02 14:10:56;;;;;;;8.18;4.88;;;;;;;;;;5046801;28;20047;-77
2021/09/02 14:13:41;;;;;;;8.00;4.90;;;;;;;;;;5046798;28;20159;-80
2021/09/02 14:16:26;;;;;;;8.32;4.95;;;;;;;;;;5046722;28;20090;-81
2021/09/02 14:19:10;;;;;;;7.15;4.85;;;;;;;;;;5046301;28;20039;-78
2021/09/02 14:21:55;;;;;;;8.50;4.90;;;;;;;;;;5032687;28;20448;-79
2021/09/02 14:24:39;;;;;;;7.70;4.82;;;;;;;;;;5046242;28;20056;-78
2021/09/02 14:27:24;;;;;;;6.65;4.82;;;;;;;;;;5047544;28;20613;-79
2021/09/02 14:30:08;;;;;;;7.90;4.60;;;;;;;;;;5045979;28;20079;-79
2021/09/02 14:32:53;;;;;;;7.60;4.80;;;;;;;;;;5046634;28;20421;-79
2021/09/02 14:35:38;;;;;;;7.25;4.80;;;;;;;;;;5046270;28;20044;-79
2021/09/02 14:38:23;;;;;;;8.93;4.40;;;;;;;;;;5012681;28;20417;-78
2021/09/02 14:41:08;;;;;;;8.02;4.90;;;;;;;;;;5023191;28;20067;-80
2021/09/02 14:43:52;;;;;;;6.30;4.57;;;;;;;;;;5046292;28;20047;-79
2021/09/02 14:46:37;;;;;;;6.72;4.60;;;;;;;;;;5047257;28;20083;-79
2021/09/02 14:49:21;;;;;;;6.95;4.45;;;;;;;;;;5046190;28;20036;-80
2021/09/02 14:52:06;;;;;;;6.40;4.25;;;;;;;;;;5046372;28;20059;-80
2021/09/02 14:54:51;;;;;;;6.88;4.38;;;;;;;;;;5046513;28;20056;-79
2021/09/02 14:57:35;;;;;;;7.35;4.82;;;;;;;;;;5045777;28;20619;-79
2021/09/02 15:00:20;;;;;;;6.93;4.35;;;;;;;;;;5047156;28;20086;-79
2021/09/02 15:03:04;;;;;;;6.45;4.60;;;;;;;;;;5046811;28;20128;-79
2021/09/02 15:05:49;;;;;;;7.95;4.90;;;;;;;;;;5032199;28;20107;-81
2021/09/02 15:08:33;;;;;;;7.57;4.43;;;;;;;;;;5038800;28;20509;-81
2021/09/02 15:11:18;;;;;;;7.50;4.78;;;;;;;;;;5046333;28;20150;-82
2021/09/02 15:14:02;;;;;;;7.20;5.07;;;;;;;;;;5044963;28;20531;-80
2021/09/02 15:16:47;;;;;;;4.97;4.20;;;;;;;;;;5047261;28;20048;-80
2021/09/02 15:19:31;;;;;;;6.88;4.50;;;;;;;;;;5032756;28;20035;-80
2021/09/02 15:22:16;;;;;;;6.78;4.65;;;;;;;;;;5030119;28;20036;-81
2021/09/02 15:25:03;;;;;;;6.53;4.53;;;;;;;;;;5028487;28;20066;-81
2021/09/02 15:27:48;;;;;;;6.68;4.28;;;;;;;;;;5043748;28;20433;-81
2021/09/02 15:30:33;;;;;;;7.43;4.30;;;;;;;;;;5042314;28;20039;-81
2021/09/02 15:33:17;;;;;;;7.00;4.60;;;;;;;;;;5044656;28;20040;-80
2021/09/02 15:36:02;;;;;;;7.47;4.47;;;;;;;;;;5044692;28;20043;-81
2021/09/02 15:38:46;;;;;;;7.80;4.57;;;;;;;;;;5045025;28;20139;-81
2021/09/02 15:41:31;;;;;;;5.60;4.05;;;;;;;;;;5044919;28;20146;-81
2021/09/02 15:44:16;;;;;;;7.60;4.22;;;;;;;;;;5043443;28;20040;-82
2021/09/02 15:47:01;;;;;;;6.35;4.57;;;;;;;;;;5045317;28;20083;-80
2021/09/02 15:49:46;;;;;;;6.40;4.72;;;;;;;;;;5040960;28;20040;-80
2021/09/02 15:52:31;;;;;;;5.63;4.35;;;;;;;;;;5039365;28;20062;-76
2021/09/02 15:55:15;;;;;;;6.28;4.10;;;;;;;;;;5040938;28;20067;-80
2021/09/02 15:58:00;;;;;;;6.90;4.72;;;;;;;;;;5044925;28;20099;-80
2021/09/02 16:00:44;;;;;;;5.80;4.30;;;;;;;;;;5044749;28;20098;-79
2021/09/02 16:03:29;;;;;;;6.80;4.47;;;;;;;;;;5043742;28;20198;-82
2021/09/02 16:06:13;;;;;;;8.07;4.03;;;;;;;;;;5024497;28;20043;-79
2021/09/02 16:08:58;;;;;;;7.78;4.55;;;;;;;;;;5030880;28;20075;-77
2021/09/02 16:11:42;;;;;;;6.70;4.05;;;;;;;;;;5044308;28;20044;-80
2021/09/02 16:14:27;;;;;;;8.27;4.38;;;;;;;;;;5044663;28;20079;-80
2021/09/02 16:17:11;;;;;;;11.40;4.57;;;;;;;;;;5042143;28;20110;-75
2021/09/02 16:19:56;;;;;;;6.05;4.20;;;;;;;;;;5043162;28;20320;-74
2021/09/02 16:22:40;;;;;;;9.57;4.25;;;;;;;;;;5037999;28;20075;-76
2021/09/02 16:25:25;;;;;;;12.05;4.70;;;;;;;;;;5046312;28;20036;-76
2021/09/02 16:28:10;;;;;;;10.20;4.30;;;;;;;;;;5041780;28;20085;-76
2021/09/02 16:30:55;;;;;;;13.32;4.45;;;;;;;;;;5044739;28;20802;-76